Time;durP1;ratioP1;P1;durP2;ratioP2;P2;SDS_P1;SDS_P2;PMS_P1;PMS_P2;Temp;Humidity;BMP_temperature;BMP_pressure;BME280_temperature;BME280_humidity;BME280_pressure;Samples;Min_cycle;Max_cycle;Signal;HPM_P1;HPM_P2
2022/07/08 00:06:57;;;;;;;2.30;1.65;;;;;;;23.52;nan;100397.03;20207934;28;101987;-75
2022/07/08 00:16:58;;;;;;;3.20;1.60;;;;;;;23.38;nan;100409.63;20209766;28;96984;-75
2022/07/08 00:26:58;;;;;;;2.58;1.55;;;;;;;23.36;nan;100405.47;20213636;28;96924;-75
2022/07/08 00:36:59;;;;;;;3.72;1.70;;;;;;;23.27;nan;100401.81;20202965;28;98314;-75
2022/07/08 00:47:00;;;;;;;3.78;1.80;;;;;;;23.23;nan;100392.47;20207755;28;97017;-75
2022/07/08 00:57:01;;;;;;;2.13;1.60;;;;;;;23.19;nan;100386.59;20214182;28;97016;-75
2022/07/08 01:07:02;;;;;;;3.03;1.80;;;;;;;23.17;nan;100389.38;20204616;28;96864;-75
2022/07/08 01:17:02;;;;;;;1.85;1.38;;;;;;;23.13;nan;100395.88;20207049;28;97603;-74
2022/07/08 01:27:03;;;;;;;2.28;1.50;;;;;;;23.08;nan;100376.09;20212968;28;97778;-75
2022/07/08 01:37:04;;;;;;;2.87;1.67;;;;;;;23.03;nan;100385.25;20206390;28;97078;-75
2022/07/08 01:47:05;;;;;;;2.15;1.60;;;;;;;22.91;nan;100381.03;20200988;28;97599;-75
2022/07/08 01:57:15;;;;;;;1.70;1.60;;;;;;;22.90;nan;100378.50;20202632;28;97141;-75
2022/07/08 02:07:16;;;;;;;1.65;1.50;;;;;;;22.79;nan;100379.41;20201603;28;97771;-75
2022/07/08 02:17:19;;;;;;;2.08;1.55;;;;;;;22.79;nan;100379.41;20201330;28;97008;-75
2022/07/08 02:27:19;;;;;;;2.25;1.50;;;;;;;22.75;nan;100394.66;20204621;28;97364;-75
2022/07/08 02:37:20;;;;;;;4.28;1.75;;;;;;;22.75;nan;100396.47;20210345;28;100870;-75
2022/07/08 02:47:21;;;;;;;6.28;1.60;;;;;;;22.61;nan;100398.47;20221881;28;97010;-75
2022/07/08 02:57:22;;;;;;;2.67;1.50;;;;;;;22.65;nan;100406.97;20219077;28;97760;-75
2022/07/08 03:07:22;;;;;;;1.95;1.50;;;;;;;22.53;nan;100411.47;20217033;28;100228;-75
2022/07/08 03:17:23;;;;;;;2.45;1.50;;;;;;;22.60;nan;100410.00;20218738;28;98126;-75
2022/07/08 03:27:23;;;;;;;1.58;1.40;;;;;;;22.60;nan;100410.00;20212380;28;101521;-75
2022/07/08 03:37:24;;;;;;;4.40;1.50;;;;;;;22.48;nan;100414.47;20212494;28;99508;-75
2022/07/08 03:47:24;;;;;;;1.90;1.48;;;;;;;22.46;nan;100420.84;20210941;28;98951;-75
2022/07/08 03:57:25;;;;;;;1.75;1.58;;;;;;;22.43;nan;100421.94;20224797;28;97046;-75
2022/07/08 04:07:25;;;;;;;2.50;1.83;;;;;;;22.29;nan;100424.84;20214730;28;97159;-74
2022/07/08 04:17:26;;;;;;;5.00;2.60;;;;;;;22.39;nan;100429.28;20205027;28;97909;-74
2022/07/08 04:27:27;;;;;;;3.00;1.70;;;;;;;22.42;nan;100444.00;20212343;28;96964;-75
2022/07/08 04:37:27;;;;;;;2.72;1.50;;;;;;;22.48;nan;100451.41;20211037;28;98387;-75
2022/07/08 04:47:28;;;;;;;3.30;1.77;;;;;;;22.46;nan;100452.50;20221657;28;98604;-76
2022/07/08 04:57:32;;;;;;;2.70;1.70;;;;;;;22.56;nan;100464.00;20220314;28;98591;-75
2022/07/08 05:07:33;;;;;;;3.70;1.75;;;;;;;22.44;nan;100476.38;20209840;28;97364;-74
2022/07/08 05:17:33;;;;;;;3.58;1.60;;;;;;;22.52;nan;100483.66;20211039;28;99169;-74
2022/07/08 05:27:34;;;;;;;2.17;1.63;;;;;;;22.48;nan;100490.16;20217656;28;96867;-73
2022/07/08 05:37:37;;;;;;;2.10;1.63;;;;;;;22.49;nan;100483.94;20212262;28;100354;-75
2022/07/08 05:47:38;;;;;;;3.05;1.80;;;;;;;22.47;nan;100499.91;20217828;28;96885;-75
2022/07/08 05:57:39;;;;;;;6.18;1.88;;;;;;;22.54;nan;100505.50;20206849;28;101017;-75
2022/07/08 06:07:40;;;;;;;5.32;1.80;;;;;;;22.59;nan;100518.34;20216750;28;97564;-76
2022/07/08 06:17:41;;;;;;;2.47;1.83;;;;;;;22.66;nan;100512.41;20218837;28;98975;-75
2022/07/08 06:27:42;;;;;;;2.75;1.80;;;;;;;22.63;nan;100522.38;20225761;28;97932;-74
2022/07/08 06:37:44;;;;;;;2.33;1.58;;;;;;;22.66;nan;100525.63;20215790;28;98667;-78
2022/07/08 06:47:45;;;;;;;2.22;1.90;;;;;;;22.70;nan;100528.84;20230019;28;97014;-78
2022/07/08 06:57:46;;;;;;;5.75;2.17;;;;;;;22.91;nan;100517.47;20228373;28;96915;-75
2022/07/08 07:07:46;;;;;;;2.00;1.75;;;;;;;22.99;nan;100517.69;20215979;28;97815;-75
2022/07/08 07:17:47;;;;;;;2.30;2.08;;;;;;;23.12;nan;100518.34;20218759;28;97926;-74
2022/07/08 07:27:48;;;;;;;2.85;2.28;;;;;;;23.22;nan;100521.09;20212099;28;98470;-75
2022/07/08 07:37:49;;;;;;;19.52;2.55;;;;;;;23.38;nan;100525.06;20220426;28;100799;-77
2022/07/08 07:47:49;;;;;;;7.13;2.30;;;;;;;23.49;nan;100525.81;20239453;28;96768;-76
2022/07/08 07:57:51;;;;;;;2.78;2.17;;;;;;;23.71;nan;100533.72;20231035;28;97475;-76
2022/07/08 08:07:51;;;;;;;3.03;2.30;;;;;;;23.89;nan;100532.13;20227024;28;97129;-77
2022/07/08 08:17:52;;;;;;;2.95;2.00;;;;;;;24.07;nan;100527.09;20221825;28;97705;-76
2022/07/08 08:27:54;;;;;;;14.02;3.05;;;;;;;24.13;nan;100534.47;20202187;28;99783;-75
2022/07/08 08:37:54;;;;;;;8.00;2.30;;;;;;;24.40;nan;100526.88;20185583;28;100858;-79
2022/07/08 08:47:59;;;;;;;4.93;2.05;;;;;;;24.58;nan;100537.63;20189927;28;97617;-79
2022/07/08 08:58:03;;;;;;;3.75;2.50;;;;;;;24.77;nan;100534.19;20215752;28;97151;-79
2022/07/08 09:08:03;;;;;;;2.40;2.20;;;;;;;24.92;nan;100534.59;20219373;28;100717;-79
2022/07/08 09:18:31;;;;;;;8.82;2.53;;;;;;;25.09;nan;100523.28;20224506;28;98203;-80
2022/07/08 09:28:37;;;;;;;2.63;1.75;;;;;;;25.20;nan;100527.59;20225376;28;96906;-79
2022/07/08 09:38:40;;;;;;;3.10;2.17;;;;;;;25.37;nan;100530.50;20223709;28;97061;-79
2022/07/08 09:48:41;;;;;;;4.57;2.20;;;;;;;25.59;nan;100526.72;20245655;28;96901;-80
2022/07/08 09:58:42;;;;;;;6.57;1.90;;;;;;;25.78;nan;100533.78;20249260;28;98491;-79
2022/07/08 10:08:43;;;;;;;3.47;2.20;;;;;;;25.83;nan;100538.59;20239085;28;101857;-78
2022/07/08 10:18:49;;;;;;;7.28;3.00;;;;;;;25.85;nan;100540.16;20225809;28;97119;-79
2022/07/08 10:29:01;;;;;;;2.92;2.10;;;;;;;25.93;nan;100544.72;20228743;28;97218;-78
2022/07/08 10:39:04;;;;;;;4.28;1.85;;;;;;;25.96;nan;100551.56;20234082;28;97733;-78
2022/07/08 10:49:12;;;;;;;1.65;1.55;;;;;;;25.99;nan;100554.75;20224510;28;97783;-78
2022/07/08 10:59:19;;;;;;;4.10;1.60;;;;;;;26.05;nan;100550.69;20213718;28;97124;-82
2022/07/08 11:09:22;;;;;;;4.07;2.10;;;;;;;26.20;nan;100564.31;20235992;28;96924;-84
2022/07/08 11:19:22;;;;;;;2.90;1.95;;;;;;;26.14;nan;100571.03;20268323;28;96837;-82
2022/07/08 11:29:24;;;;;;;37.80;3.40;;;;;;;26.19;nan;100570.59;20236909;28;99237;-86
2022/07/08 11:39:26;;;;;;;11.75;2.10;;;;;;;26.17;nan;100573.41;20249519;28;97865;-86
2022/07/08 11:49:26;;;;;;;4.82;1.70;;;;;;;26.15;nan;100566.59;20237425;28;98679;-86
2022/07/08 11:59:29;;;;;;;6.10;1.93;;;;;;;26.31;nan;100565.94;20243377;28;97887;-86
2022/07/08 12:09:30;;;;;;;6.50;1.80;;;;;;;27.39;nan;100557.97;20244428;28;96996;-84
2022/07/08 12:19:36;;;;;;;4.10;1.60;;;;;;;28.31;nan;100554.81;20260741;28;98978;-83
2022/07/08 12:29:39;;;;;;;2.88;1.52;;;;;;;28.27;nan;100543.63;20227645;28;97339;-83
2022/07/08 12:39:40;;;;;;;4.22;1.63;;;;;;;26.65;nan;100541.41;20235775;28;97270;-83
2022/07/08 12:49:42;;;;;;;4.83;1.60;;;;;;;26.27;nan;100532.69;20251076;28;96746;-82
2022/07/08 12:59:43;;;;;;;3.05;1.67;;;;;;;26.17;nan;100535.41;20261492;28;98145;-83
2022/07/08 13:09:44;;;;;;;2.17;1.50;;;;;;;26.05;nan;100542.72;20246698;28;97006;-83
2022/07/08 13:19:44;;;;;;;1.60;1.42;;;;;;;26.04;nan;100547.19;20240702;28;99396;-83
2022/07/08 13:29:45;;;;;;;1.90;1.70;;;;;;;26.08;nan;100546.94;20235540;28;97002;-84
2022/07/08 13:39:45;;;;;;;1.60;1.45;;;;;;;26.07;nan;100548.72;20250197;28;97318;-83
2022/07/08 13:49:46;;;;;;;1.63;1.43;;;;;;;26.10;nan;100548.44;20251748;28;106403;-84
2022/07/08 13:59:47;;;;;;;1.98;1.40;;;;;;;26.13;nan;100540.19;20254304;28;97122;-83
2022/07/08 14:09:47;;;;;;;1.60;1.40;;;;;;;26.13;nan;100532.22;20250386;28;97402;-84
2022/07/08 14:19:47;;;;;;;1.40;1.30;;;;;;;26.13;nan;100529.56;20242111;28;97525;-83
2022/07/08 14:29:48;;;;;;;5.05;1.40;;;;;;;26.14;nan;100525.94;20238661;28;99438;-82
2022/07/08 14:39:48;;;;;;;6.28;1.90;;;;;;;26.32;nan;100511.88;20205920;28;97033;-90
2022/07/08 14:49:49;;;;;;;3.60;1.98;;;;;;;26.36;nan;100519.34;20239418;28;100592;-91
2022/07/08 14:59:51;;;;;;;3.10;2.10;;;;;;;26.35;nan;100519.50;20233102;28;97608;-90
2022/07/08 15:09:51;;;;;;;;;;;;;;;26.34;nan;100521.34;20228701;28;100096;-90
2022/07/08 15:19:52;;;;;;;3.42;2.38;;;;;;;26.38;nan;100527.19;20233479;28;99010;-92
2022/07/08 15:29:53;;;;;;;11.87;6.30;;;;;;;26.45;nan;100527.41;20226964;28;97614;-90
2022/07/08 15:39:53;;;;;;;6.00;3.03;;;;;;;26.44;nan;100526.59;20225181;28;98597;-88
2022/07/08 15:49:54;;;;;;;3.47;2.50;;;;;;;26.42;nan;100548.97;20243642;28;98115;-87
2022/07/08 15:59:54;;;;;;;4.28;2.45;;;;;;;26.16;nan;100561.13;20257576;28;98638;-87
2022/07/08 16:09:55;;;;;;;7.97;2.93;;;;;;;25.97;nan;100561.19;20232161;28;97315;-84
2022/07/08 16:19:55;;;;;;;11.02;2.83;;;;;;;25.70;nan;100584.88;20244314;28;97959;-84
2022/07/08 16:29:56;;;;;;;7.35;2.67;;;;;;;25.54;nan;100593.41;20248362;28;100603;-83
2022/07/08 16:39:56;;;;;;;3.05;2.00;;;;;;;25.36;nan;100616.31;20235848;28;98896;-84
2022/07/08 16:49:57;;;;;;;2.55;2.00;;;;;;;24.80;nan;100623.94;20241564;28;98446;-86
2022/07/08 16:59:57;;;;;;;2.78;1.90;;;;;;;24.46;nan;100621.59;20230715;28;97467;-83
2022/07/08 17:09:58;;;;;;;5.18;2.20;;;;;;;24.23;nan;100639.50;20246284;28;99703;-82
2022/07/08 17:20:03;;;;;;;2.95;2.17;;;;;;;23.58;nan;100644.94;20252622;28;99369;-84
2022/07/08 17:30:04;;;;;;;3.38;2.00;;;;;;;23.73;nan;100656.03;20245949;28;96861;-80
2022/07/08 17:40:06;;;;;;;2.60;2.40;;;;;;;23.67;nan;100658.25;20217362;28;97523;-76
2022/07/08 17:50:06;;;;;;;2.93;2.63;;;;;;;23.35;nan;100668.84;20218617;28;99750;-77
2022/07/08 18:00:08;;;;;;;4.63;2.65;;;;;;;23.28;nan;100678.25;20210900;28;97876;-76
2022/07/08 18:10:10;;;;;;;6.83;3.17;;;;;;;23.25;nan;100684.59;20221351;28;97013;-75
2022/07/08 18:20:11;;;;;;;3.42;2.80;;;;;;;23.34;nan;100689.16;20208928;28;97365;-76
2022/07/08 18:30:12;;;;;;;3.03;2.33;;;;;;;23.24;nan;100700.59;20198204;28;98873;-76
2022/07/08 18:40:15;;;;;;;3.17;2.20;;;;;;;23.13;nan;100706.72;20225342;28;99880;-76
2022/07/08 18:50:15;;;;;;;2.50;1.98;;;;;;;23.52;nan;100715.00;20220990;28;96943;-77
2022/07/08 19:00:16;;;;;;;3.53;2.13;;;;;;;23.87;nan;100716.53;20210502;28;97363;-76
2022/07/08 19:10:17;;;;;;;4.60;1.80;;;;;;;23.92;nan;100727.59;20227227;28;98657;-76
2022/07/08 19:20:17;;;;;;;4.88;2.00;;;;;;;23.98;nan;100732.38;20204569;28;98438;-74
2022/07/08 19:30:18;;;;;;;3.63;1.73;;;;;;;23.91;nan;100754.16;20202859;28;99480;-74
2022/07/08 19:40:19;;;;;;;1.75;1.60;;;;;;;23.91;nan;100767.38;20211307;28;98647;-74
2022/07/08 19:50:19;;;;;;;2.28;1.50;;;;;;;23.83;nan;100784.72;20198776;28;98600;-77
2022/07/08 20:00:21;;;;;;;3.15;2.53;;;;;;;23.86;nan;100796.00;20218685;28;97065;-75
2022/07/08 20:10:21;;;;;;;1.47;1.37;;;;;;;23.96;nan;100800.44;20202310;28;98095;-77
2022/07/08 20:20:21;;;;;;;1.55;1.40;;;;;;;23.86;nan;100804.78;20200430;28;99220;-75
2022/07/08 20:30:24;;;;;;;3.05;1.52;;;;;;;23.94;nan;100809.47;20190533;28;98374;-76
2022/07/08 20:40:25;;;;;;;2.20;1.50;;;;;;;23.91;nan;100807.91;20196062;28;97632;-76
2022/07/08 20:50:25;;;;;;;2.50;1.50;;;;;;;23.90;nan;100813.28;20202598;28;99382;-74
2022/07/08 21:00:26;;;;;;;1.83;1.38;;;;;;;23.80;nan;100813.22;20200779;28;97231;-74
2022/07/08 21:10:26;;;;;;;1.17;1.08;;;;;;;23.79;nan;100795.66;20204232;28;100613;-75
2022/07/08 21:20:27;;;;;;;1.67;1.23;;;;;;;23.74;nan;100806.66;20200347;28;96919;-74
2022/07/08 21:30:28;;;;;;;4.10;1.30;;;;;;;23.69;nan;100802.69;20206049;28;97952;-76
2022/07/08 21:40:29;;;;;;;1.30;1.20;;;;;;;23.71;nan;100806.06;20230151;28;97550;-74
2022/07/08 21:50:30;;;;;;;2.92;1.25;;;;;;;23.71;nan;100796.31;20221917;28;100632;-75
2022/07/08 22:00:30;;;;;;;3.28;1.30;;;;;;;23.74;nan;100803.16;20219627;28;97241;-75
2022/07/08 22:10:31;;;;;;;1.77;1.48;;;;;;;23.79;nan;100807.09;20216935;28;98667;-75
2022/07/08 22:20:33;;;;;;;1.95;1.35;;;;;;;23.85;nan;100815.50;20219458;28;100654;-75
2022/07/08 22:30:34;;;;;;;;;;;;;;;23.79;nan;100817.69;20214843;28;100096;-75
2022/07/08 22:40:36;;;;;;;5.57;3.10;;;;;;;23.80;nan;100821.16;20223641;28;99422;-77
2022/07/08 22:50:39;;;;;;;8.20;3.88;;;;;;;23.78;nan;100823.94;20213543;28;97510;-74
2022/07/08 23:00:39;;;;;;;31.83;20.45;;;;;;;23.75;nan;100818.88;20217020;28;101378;-75
2022/07/08 23:10:40;;;;;;;6.53;4.90;;;;;;;23.66;nan;100809.91;20215095;28;97217;-75
2022/07/08 23:20:41;;;;;;;7.47;3.70;;;;;;;23.59;nan;100810.53;20212735;28;96931;-75
2022/07/08 23:30:43;;;;;;;3.47;2.83;;;;;;;23.53;nan;100809.22;20223357;28;96992;-75
2022/07/08 23:40:43;;;;;;;2.00;1.80;;;;;;;23.44;nan;100824.00;20225074;28;96984;-74
2022/07/08 23:50:44;;;;;;;2.40;1.40;;;;;;;23.33;nan;100816.94;20224505;28;97601;-75
